Addis Ababa, Ethiopia
Current Conditions -  °F | °C
As of 1:56 AM on Wednesday 28 Jan 2015 (Local Time) from KQRH Reporting Station
Clear Clear  
Wind Chill: 71°   Ceiling: Unl
Heat Index: 71°   Visibility: 6mi
Dew Point: 61°   Wind: 3mph
Humidity: 70%   Direction: 190°S
Pressure: 30.04"   Gusts: NA
Location:  9.02°N, 38.75°E
Report Text: KQRH 272256Z AUTO 19003KT 9000 CLR 22/16 A3004 RMK AO2 SLPNO T02160159
Loading
Personal Weather Stations






























Interactive Weather Map New forecast layout! Learn more

10-Day Weather Forecast

Advertisements
Track Severe Weather on mobile